Аэропорт: Бухта Провидения. Провидения

ICAO: UHMD

METAR:
2018/09/19 06:00
UHMD 190600Z 18005MPS 9999 SCT023CB BKN150 10/05 Q1019 RMK QBB700 MT OBSC QFE763/1017
METAR:
Информация по данной станции не доступна